createdAt,value
2018-05-25T00:00:08.892Z,1014.39
2018-05-25T00:01:08.847Z,1014.39
2018-05-25T00:02:08.809Z,1014.42
2018-05-25T00:03:08.780Z,1014.43
2018-05-25T00:04:08.728Z,1014.45
2018-05-25T00:05:08.688Z,1014.40
2018-05-25T00:06:08.649Z,1014.41
2018-05-25T00:07:08.609Z,1014.41
2018-05-25T00:08:08.566Z,1014.44
2018-05-25T00:09:08.524Z,1014.42
2018-05-25T00:10:08.497Z,1014.42
2018-05-25T00:11:08.446Z,1014.46
2018-05-25T00:12:08.403Z,1014.47
2018-05-25T00:13:08.363Z,1014.46
2018-05-25T00:14:08.338Z,1014.44
2018-05-25T00:15:08.285Z,1014.46
2018-05-25T00:16:08.248Z,1014.41
2018-05-25T00:17:08.201Z,1014.44
2018-05-25T00:18:08.162Z,1014.42
2018-05-25T00:19:08.124Z,1014.44
2018-05-25T00:20:08.081Z,1014.46
2018-05-25T00:21:08.043Z,1014.47
2018-05-25T00:22:08.003Z,1014.46
2018-05-25T00:23:07.958Z,1014.45
2018-05-25T00:24:07.920Z,1014.45
2018-05-25T00:25:07.876Z,1014.44
2018-05-25T00:26:07.837Z,1014.42
2018-05-25T00:27:07.795Z,1014.45
2018-05-25T00:28:07.754Z,1014.42
2018-05-25T00:29:07.716Z,1014.45
2018-05-25T00:30:07.678Z,1014.41
2018-05-25T00:31:07.636Z,1014.43
2018-05-25T00:32:07.592Z,1014.39
2018-05-25T00:33:07.552Z,1014.43
2018-05-25T00:34:07.509Z,1014.42
2018-05-25T00:35:07.472Z,1014.41
2018-05-25T00:36:07.432Z,1014.44
2018-05-25T00:37:07.390Z,1014.44
2018-05-25T00:38:07.348Z,1014.46
2018-05-25T00:39:07.307Z,1014.43
2018-05-25T00:40:07.270Z,1014.47
2018-05-25T00:41:07.226Z,1014.42
2018-05-25T00:42:07.185Z,1014.47
2018-05-25T00:43:07.145Z,1014.44
2018-05-25T00:44:07.105Z,1014.48
2018-05-25T00:45:07.068Z,1014.49
2018-05-25T00:46:07.024Z,1014.46
2018-05-25T00:47:06.983Z,1014.50
2018-05-25T00:48:06.944Z,1014.49
2018-05-25T00:49:06.905Z,1014.46
2018-05-25T00:50:06.864Z,1014.48
2018-05-25T00:51:06.821Z,1014.45
2018-05-25T00:52:06.786Z,1014.47
2018-05-25T00:53:06.765Z,1014.46
2018-05-25T00:54:06.697Z,1014.43
2018-05-25T00:55:06.659Z,1014.47
2018-05-25T00:56:06.633Z,1014.48
2018-05-25T00:57:06.581Z,1014.48
2018-05-25T00:58:06.535Z,1014.46
2018-05-25T00:59:06.499Z,1014.45
2018-05-25T01:00:06.453Z,1014.46
2018-05-25T01:01:06.413Z,1014.44
2018-05-25T01:02:06.380Z,1014.45
2018-05-25T01:03:06.331Z,1014.45
2018-05-25T01:04:06.290Z,1014.38
2018-05-25T01:05:06.252Z,1014.43
2018-05-25T01:06:06.211Z,1014.40
2018-05-25T01:07:06.167Z,1014.39
2018-05-25T01:08:06.127Z,1014.42
2018-05-25T01:09:06.092Z,1014.43
2018-05-25T01:10:06.047Z,1014.44
2018-05-25T01:11:06.009Z,1014.41
2018-05-25T01:12:05.966Z,1014.41
2018-05-25T01:13:05.931Z,1014.41
2018-05-25T01:14:05.891Z,1014.43
2018-05-25T01:15:05.866Z,1014.38
2018-05-25T01:16:05.805Z,1014.39
2018-05-25T01:17:05.761Z,1014.42
2018-05-25T01:18:05.724Z,1014.41
2018-05-25T01:19:05.689Z,1014.43
2018-05-25T01:20:05.640Z,1014.38
2018-05-25T01:21:05.601Z,1014.38
2018-05-25T01:22:05.557Z,1014.34
2018-05-25T01:23:05.519Z,1014.37
2018-05-25T01:24:05.481Z,1014.35
2018-05-25T01:25:05.441Z,1014.31
2018-05-25T01:26:05.402Z,1014.30
2018-05-25T01:27:05.354Z,1014.29
2018-05-25T01:28:05.316Z,1014.29
2018-05-25T01:29:05.273Z,1014.29
2018-05-25T01:30:05.243Z,1014.31
2018-05-25T01:31:05.192Z,1014.31
2018-05-25T01:32:05.154Z,1014.30
2018-05-25T01:33:05.114Z,1014.32
2018-05-25T01:34:05.069Z,1014.33
2018-05-25T01:35:05.029Z,1014.34
2018-05-25T01:36:04.988Z,1014.27
2018-05-25T01:37:04.948Z,1014.26
2018-05-25T01:38:04.913Z,1014.28
2018-05-25T01:39:04.874Z,1014.26
2018-05-25T01:40:04.827Z,1014.27
2018-05-25T01:41:04.791Z,1014.27
2018-05-25T01:42:04.745Z,1014.25
2018-05-25T01:43:04.703Z,1014.25
2018-05-25T01:44:04.663Z,1014.22
2018-05-25T01:45:04.627Z,1014.23
2018-05-25T01:46:04.585Z,1014.25
2018-05-25T01:47:04.552Z,1014.19
2018-05-25T01:48:04.503Z,1014.18
2018-05-25T01:49:04.462Z,1014.19
2018-05-25T01:50:04.418Z,1014.19
2018-05-25T01:51:04.378Z,1014.18
2018-05-25T01:52:04.340Z,1014.16
2018-05-25T01:53:04.301Z,1014.14
2018-05-25T01:54:04.257Z,1014.17
2018-05-25T01:55:04.215Z,1014.11
2018-05-25T01:56:04.178Z,1014.17
2018-05-25T01:57:04.134Z,1014.16
2018-05-25T01:58:04.095Z,1014.13
2018-05-25T01:59:04.053Z,1014.14
2018-05-25T02:00:04.011Z,1014.14
2018-05-25T02:01:03.970Z,1014.13
2018-05-25T02:02:03.929Z,1014.13
2018-05-25T02:03:03.891Z,1014.13
2018-05-25T02:04:03.854Z,1014.09
2018-05-25T02:05:03.812Z,1014.16
2018-05-25T02:06:03.768Z,1014.10
2018-05-25T02:07:03.726Z,1014.12
2018-05-25T02:08:03.689Z,1014.13
2018-05-25T02:09:03.645Z,1014.09
2018-05-25T02:10:03.603Z,1014.08
2018-05-25T02:11:03.566Z,1014.05
2018-05-25T02:12:03.527Z,1014.03
2018-05-25T02:13:03.485Z,1014.03
2018-05-25T02:14:03.442Z,1014.10
2018-05-25T02:15:03.401Z,1014.03
2018-05-25T02:16:03.360Z,1014.07
2018-05-25T02:17:03.327Z,1014.07
2018-05-25T02:18:03.278Z,1014.02
2018-05-25T02:19:03.238Z,1014.05
2018-05-25T02:20:03.198Z,1014.03
2018-05-25T02:21:03.157Z,1014.05
2018-05-25T02:22:03.116Z,1014.04
2018-05-25T02:23:03.075Z,1014.04
2018-05-25T02:24:03.034Z,1014.05
2018-05-25T02:25:02.995Z,1014.03
2018-05-25T02:26:02.954Z,1014.04
2018-05-25T02:27:02.913Z,1014.08
2018-05-25T02:28:02.875Z,1014.07
2018-05-25T02:29:02.832Z,1014.08
2018-05-25T02:30:02.791Z,1014.06
2018-05-25T02:31:02.751Z,1014.04
2018-05-25T02:32:02.711Z,1014.04
2018-05-25T02:33:02.680Z,1014.01
2018-05-25T02:34:02.626Z,1014.00
2018-05-25T02:35:02.586Z,1014.00
2018-05-25T02:36:02.550Z,1013.95
2018-05-25T02:37:02.507Z,1013.96
2018-05-25T02:38:02.469Z,1013.94
2018-05-25T02:39:02.424Z,1013.92
2018-05-25T02:40:02.386Z,1013.90
2018-05-25T02:41:02.344Z,1013.89
2018-05-25T02:42:02.304Z,1013.91
2018-05-25T02:43:02.263Z,1013.89
2018-05-25T02:44:02.223Z,1013.89
2018-05-25T02:45:02.180Z,1013.91
2018-05-25T02:46:02.141Z,1013.92
2018-05-25T02:47:02.098Z,1013.92
2018-05-25T02:48:02.058Z,1013.89
2018-05-25T02:49:02.017Z,1013.92
2018-05-25T02:50:01.976Z,1013.90
2018-05-25T02:51:01.935Z,1013.91
2018-05-25T02:52:01.896Z,1013.92
2018-05-25T02:53:01.854Z,1013.90
2018-05-25T02:54:01.811Z,1013.90
2018-05-25T02:55:01.776Z,1013.89
2018-05-25T02:56:01.731Z,1013.94
2018-05-25T02:57:01.691Z,1013.90
2018-05-25T02:58:01.650Z,1013.92
2018-05-25T02:59:01.610Z,1013.91
2018-05-25T03:00:01.569Z,1013.93
2018-05-25T03:01:01.529Z,1013.92
2018-05-25T03:02:01.487Z,1013.95
2018-05-25T03:03:01.446Z,1013.96
2018-05-25T03:04:01.415Z,1013.99
2018-05-25T03:05:01.370Z,1013.98
2018-05-25T03:06:01.324Z,1014.03
2018-05-25T03:07:01.285Z,1014.01
2018-05-25T03:08:01.242Z,1014.05
2018-05-25T03:09:01.203Z,1014.04
2018-05-25T03:10:01.161Z,1014.08
2018-05-25T03:11:01.121Z,1014.07
2018-05-25T03:12:01.078Z,1014.09
2018-05-25T03:13:01.038Z,1014.14
2018-05-25T03:14:00.997Z,1014.15
2018-05-25T03:15:00.956Z,1014.16
2018-05-25T03:16:00.918Z,1014.11
2018-05-25T03:17:00.910Z,1014.11
2018-05-25T03:18:00.833Z,1014.15
2018-05-25T03:19:00.792Z,1014.14
2018-05-25T03:20:00.751Z,1014.16
2018-05-25T03:21:00.710Z,1014.11
2018-05-25T03:22:00.673Z,1014.14
2018-05-25T03:23:00.628Z,1014.15
2018-05-25T03:24:00.592Z,1014.12
2018-05-25T03:25:00.548Z,1014.11
2018-05-25T03:26:00.512Z,1014.15
2018-05-25T03:27:00.464Z,1014.15
2018-05-25T03:28:00.426Z,1014.17
2018-05-25T03:29:00.387Z,1014.16
2018-05-25T03:30:00.342Z,1014.19
2018-05-25T03:31:00.305Z,1014.17
2018-05-25T03:32:00.276Z,1014.17
2018-05-25T03:33:00.226Z,1014.17
2018-05-25T03:34:00.181Z,1014.15
2018-05-25T03:35:00.138Z,1014.15
2018-05-25T03:36:00.097Z,1014.17
2018-05-25T03:37:00.057Z,1014.19
2018-05-25T03:38:00.013Z,1014.15
2018-05-25T03:38:59.978Z,1014.20
2018-05-25T03:39:59.933Z,1014.19
2018-05-25T03:40:59.893Z,1014.18
2018-05-25T03:41:59.856Z,1014.20
2018-05-25T03:42:59.809Z,1014.20
2018-05-25T03:43:59.769Z,1014.19
2018-05-25T03:44:59.731Z,1014.23
2018-05-25T03:45:59.688Z,1014.21
2018-05-25T03:46:59.647Z,1014.19
2018-05-25T03:47:59.608Z,1014.19
2018-05-25T03:48:59.568Z,1014.20
2018-05-25T03:49:59.524Z,1014.16
2018-05-25T03:50:59.483Z,1014.16
2018-05-25T03:51:59.443Z,1014.17
2018-05-25T03:52:59.403Z,1014.18
2018-05-25T03:53:59.361Z,1014.14
2018-05-25T03:54:59.324Z,1014.18
2018-05-25T03:55:59.282Z,1014.21
2018-05-25T03:56:59.239Z,1014.20
2018-05-25T03:57:59.326Z,1014.19
2018-05-25T03:58:59.159Z,1014.18
2018-05-25T03:59:59.116Z,1014.17
2018-05-25T04:00:59.076Z,1014.20
2018-05-25T04:01:59.033Z,1014.22
2018-05-25T04:02:59.003Z,1014.27
2018-05-25T04:03:58.956Z,1014.27
2018-05-25T04:04:58.912Z,1014.28
2018-05-25T04:05:58.873Z,1014.26
2018-05-25T04:06:58.831Z,1014.27
2018-05-25T04:07:58.788Z,1014.23
2018-05-25T04:08:58.754Z,1014.27
2018-05-25T04:09:58.709Z,1014.25
2018-05-25T04:10:58.668Z,1014.33
2018-05-25T04:11:58.627Z,1014.29
2018-05-25T04:12:58.585Z,1014.30
2018-05-25T04:13:58.548Z,1014.29
2018-05-25T04:14:58.505Z,1014.33
2018-05-25T04:15:58.464Z,1014.32
2018-05-25T04:16:58.425Z,1014.31
2018-05-25T04:17:58.379Z,1014.31
2018-05-25T04:18:58.340Z,1014.33
2018-05-25T04:19:58.298Z,1014.35
2018-05-25T04:20:58.261Z,1014.33
2018-05-25T04:21:58.221Z,1014.37
2018-05-25T04:22:58.176Z,1014.39
2018-05-25T04:23:58.139Z,1014.38
2018-05-25T04:24:58.098Z,1014.36
2018-05-25T04:25:58.057Z,1014.36
2018-05-25T04:26:58.016Z,1014.38
2018-05-25T04:27:57.974Z,1014.38
2018-05-25T04:28:57.932Z,1014.36
2018-05-25T04:29:57.892Z,1014.37
2018-05-25T04:30:57.852Z,1014.36
2018-05-25T04:31:57.819Z,1014.36
2018-05-25T04:32:57.772Z,1014.42
2018-05-25T04:33:57.728Z,1014.35
2018-05-25T04:34:57.693Z,1014.36
2018-05-25T04:35:57.651Z,1014.36
2018-05-25T04:36:57.606Z,1014.40
2018-05-25T04:37:57.564Z,1014.37
2018-05-25T04:38:57.526Z,1014.39
2018-05-25T04:39:57.484Z,1014.38
2018-05-25T04:40:57.450Z,1014.40
2018-05-25T04:41:57.402Z,1014.39
2018-05-25T04:42:57.367Z,1014.39
2018-05-25T04:43:57.323Z,1014.40
2018-05-25T04:44:57.278Z,1014.41
2018-05-25T04:45:57.238Z,1014.44
2018-05-25T04:46:57.226Z,1014.48
2018-05-25T04:47:57.157Z,1014.41
2018-05-25T04:48:57.120Z,1014.44
2018-05-25T04:49:57.076Z,1014.46
2018-05-25T04:50:57.035Z,1014.48
2018-05-25T04:51:56.996Z,1014.45
2018-05-25T04:52:56.953Z,1014.48
2018-05-25T04:53:56.914Z,1014.50
2018-05-25T04:54:56.871Z,1014.51
2018-05-25T04:55:56.832Z,1014.49
2018-05-25T04:56:56.795Z,1014.50
2018-05-25T04:57:56.764Z,1014.50
2018-05-25T04:58:56.711Z,1014.51
2018-05-25T04:59:56.681Z,1014.51
2018-05-25T05:00:56.649Z,1014.51
2018-05-25T05:01:56.592Z,1014.50
2018-05-25T05:02:56.545Z,1014.53
2018-05-25T05:03:56.506Z,1014.54
2018-05-25T05:04:56.511Z,1014.49
2018-05-25T05:05:56.424Z,1014.51
2018-05-25T05:06:56.384Z,1014.51
2018-05-25T05:07:56.343Z,1014.50
2018-05-25T05:08:56.300Z,1014.48
2018-05-25T05:09:56.262Z,1014.52
2018-05-25T05:10:56.218Z,1014.51
2018-05-25T05:11:56.179Z,1014.49
2018-05-25T05:12:56.145Z,1014.50
2018-05-25T05:13:56.101Z,1014.51
2018-05-25T05:14:56.057Z,1014.47
2018-05-25T05:15:56.027Z,1014.48
2018-05-25T05:16:55.977Z,1014.54
2018-05-25T05:17:55.936Z,1014.49
2018-05-25T05:18:55.893Z,1014.53
2018-05-25T05:19:55.857Z,1014.55
2018-05-25T05:20:55.815Z,1014.55
2018-05-25T05:21:55.790Z,1014.55
2018-05-25T05:22:55.731Z,1014.55
2018-05-25T05:23:55.692Z,1014.61
2018-05-25T05:24:55.649Z,1014.63
2018-05-25T05:25:55.615Z,1014.60
2018-05-25T05:26:55.569Z,1014.63
2018-05-25T05:27:55.529Z,1014.63
2018-05-25T05:28:55.490Z,1014.62
2018-05-25T05:29:55.446Z,1014.61
2018-05-25T05:30:55.413Z,1014.62
2018-05-25T05:31:55.377Z,1014.63
2018-05-25T05:32:55.338Z,1014.66
2018-05-25T05:33:55.285Z,1014.60
2018-05-25T05:34:55.244Z,1014.62
2018-05-25T05:35:55.202Z,1014.58
2018-05-25T05:36:55.167Z,1014.62
2018-05-25T05:37:55.123Z,1014.57
2018-05-25T05:38:55.084Z,1014.58
2018-05-25T05:39:55.048Z,1014.57
2018-05-25T05:40:55.056Z,1014.57
2018-05-25T05:41:54.980Z,1014.58
2018-05-25T05:42:54.930Z,1014.57
2018-05-25T05:43:54.886Z,1014.55
2018-05-25T05:44:54.842Z,1014.57
2018-05-25T05:45:54.799Z,1014.57
2018-05-25T05:46:54.758Z,1014.58
2018-05-25T05:47:54.721Z,1014.57
2018-05-25T05:48:54.679Z,1014.59
2018-05-25T05:49:54.635Z,1014.56
2018-05-25T05:50:54.612Z,1014.58
2018-05-25T05:51:54.557Z,1014.52
2018-05-25T05:52:54.517Z,1014.57
2018-05-25T05:53:54.475Z,1014.57
2018-05-25T05:54:54.435Z,1014.54
2018-05-25T05:55:54.418Z,1014.59
2018-05-25T05:56:54.358Z,1014.61
2018-05-25T05:57:54.312Z,1014.65
2018-05-25T05:58:54.275Z,1014.67
2018-05-25T05:59:54.232Z,1014.68
2018-05-25T06:00:54.191Z,1014.69
2018-05-25T06:01:54.152Z,1014.76
2018-05-25T06:02:54.115Z,1014.70
2018-05-25T06:03:54.075Z,1014.69
2018-05-25T06:04:54.031Z,1014.69
2018-05-25T06:05:53.995Z,1014.64
2018-05-25T06:06:53.949Z,1014.59
2018-05-25T06:07:53.909Z,1014.58
2018-05-25T06:08:53.871Z,1014.59
2018-05-25T06:09:53.830Z,1014.60
2018-05-25T06:10:53.790Z,1014.62
2018-05-25T06:11:53.749Z,1014.59
2018-05-25T06:12:53.710Z,1014.61
2018-05-25T06:13:53.669Z,1014.63
2018-05-25T06:14:53.626Z,1014.62
2018-05-25T06:15:53.589Z,1014.61
2018-05-25T06:16:53.547Z,1014.64
2018-05-25T06:17:53.507Z,1014.62
2018-05-25T06:18:53.467Z,1014.63
2018-05-25T06:19:53.426Z,1014.59
2018-05-25T06:20:53.399Z,1014.55
2018-05-25T06:21:53.348Z,1014.58
2018-05-25T06:22:53.305Z,1014.59
2018-05-25T06:23:53.266Z,1014.58
2018-05-25T06:24:53.227Z,1014.61
2018-05-25T06:25:53.190Z,1014.58
2018-05-25T06:26:53.145Z,1014.58
2018-05-25T06:27:53.106Z,1014.57
2018-05-25T06:28:53.067Z,1014.63
2018-05-25T06:29:53.028Z,1014.66
2018-05-25T06:30:52.986Z,1014.67
2018-05-25T06:31:52.945Z,1014.62
2018-05-25T06:32:52.912Z,1014.58
2018-05-25T06:33:52.869Z,1014.66
2018-05-25T06:34:52.850Z,1014.67
2018-05-25T06:35:52.788Z,1014.65
2018-05-25T06:36:52.746Z,1014.66
2018-05-25T06:37:52.707Z,1014.66
2018-05-25T06:38:52.669Z,1014.69
2018-05-25T06:39:52.631Z,1014.73
2018-05-25T06:40:52.589Z,1014.75
2018-05-25T06:41:52.546Z,1014.73
2018-05-25T06:42:52.512Z,1014.74
2018-05-25T06:43:52.467Z,1014.74
2018-05-25T06:44:52.442Z,1014.79
2018-05-25T06:45:52.395Z,1014.75
2018-05-25T06:46:52.355Z,1014.76
2018-05-25T06:47:52.313Z,1014.80
2018-05-25T06:48:52.306Z,1014.81
2018-05-25T06:49:52.240Z,1014.81
2018-05-25T06:50:52.194Z,1014.81
2018-05-25T06:51:52.156Z,1014.80
2018-05-25T06:52:52.117Z,1014.82
2018-05-25T06:53:52.068Z,1014.80
2018-05-25T06:54:52.034Z,1014.82
2018-05-25T06:55:51.994Z,1014.79
2018-05-25T06:56:51.951Z,1014.84
2018-05-25T06:57:51.924Z,1014.84
2018-05-25T06:58:51.871Z,1014.83
2018-05-25T06:59:51.832Z,1014.88
2018-05-25T07:00:51.793Z,1014.87
2018-05-25T07:01:51.756Z,1014.87
2018-05-25T07:02:51.714Z,1014.89
2018-05-25T07:03:51.681Z,1014.92
2018-05-25T07:04:51.634Z,1014.92
2018-05-25T07:05:51.599Z,1014.92
2018-05-25T07:06:51.557Z,1014.90
2018-05-25T07:07:51.522Z,1014.94
2018-05-25T07:08:51.477Z,1014.92
2018-05-25T07:09:51.439Z,1014.92
2018-05-25T07:10:51.400Z,1014.93
2018-05-25T07:11:51.363Z,1014.94
2018-05-25T07:12:51.319Z,1014.94
2018-05-25T07:13:51.280Z,1014.93
2018-05-25T07:14:51.245Z,1014.95
2018-05-25T07:15:51.206Z,1014.92
2018-05-25T07:16:51.164Z,1014.96
2018-05-25T07:17:51.125Z,1014.93
2018-05-25T07:18:51.088Z,1014.93
2018-05-25T07:19:51.051Z,1014.95
2018-05-25T07:20:51.009Z,1014.96
2018-05-25T07:21:50.970Z,1014.92
2018-05-25T07:22:50.928Z,1014.97
2018-05-25T07:23:50.890Z,1014.90
2018-05-25T07:24:50.853Z,1014.96
2018-05-25T07:25:50.812Z,1014.95
2018-05-25T07:26:50.811Z,1014.97
2018-05-25T07:27:50.734Z,1014.96
2018-05-25T07:28:50.694Z,1014.96
2018-05-25T07:29:50.654Z,1014.93
2018-05-25T07:30:50.617Z,1014.92
2018-05-25T07:31:50.577Z,1014.94
2018-05-25T07:32:50.542Z,1014.95
2018-05-25T07:33:50.500Z,1014.97
2018-05-25T07:34:50.461Z,1014.94
2018-05-25T07:35:50.427Z,1014.94
2018-05-25T07:36:50.384Z,1014.98
2018-05-25T07:37:50.344Z,1014.99
2018-05-25T07:38:50.306Z,1014.98
2018-05-25T07:39:50.267Z,1015.00
2018-05-25T07:40:50.235Z,1014.98
2018-05-25T07:41:50.190Z,1014.98
2018-05-25T07:42:50.152Z,1015.01
2018-05-25T07:43:50.112Z,1015.02
2018-05-25T07:44:50.072Z,1015.01
2018-05-25T07:45:50.039Z,1015.03
2018-05-25T07:46:49.997Z,1015.03
2018-05-25T07:47:49.956Z,1015.04
2018-05-25T07:48:49.920Z,1015.10
2018-05-25T07:49:49.878Z,1015.06
2018-05-25T07:50:49.842Z,1015.09
2018-05-25T07:51:49.805Z,1015.10
2018-05-25T07:52:49.766Z,1015.12
2018-05-25T07:53:49.725Z,1015.12
2018-05-25T07:54:49.702Z,1015.16
2018-05-25T07:55:49.647Z,1015.14
2018-05-25T07:56:49.609Z,1015.18
2018-05-25T07:57:49.569Z,1015.20
2018-05-25T07:58:49.530Z,1015.18
2018-05-25T07:59:49.494Z,1015.15
2018-05-25T08:00:49.454Z,1015.20
2018-05-25T08:01:49.416Z,1015.17
2018-05-25T08:02:49.376Z,1015.19
2018-05-25T08:03:49.339Z,1015.22
2018-05-25T08:04:49.303Z,1015.16
2018-05-25T08:05:49.261Z,1015.23
2018-05-25T08:06:49.222Z,1015.21
2018-05-25T08:07:49.188Z,1015.19
2018-05-25T08:08:49.146Z,1015.19
2018-05-25T08:09:49.109Z,1015.16
2018-05-25T08:10:49.068Z,1015.12
2018-05-25T08:11:49.032Z,1015.12
2018-05-25T08:12:48.993Z,1015.14
2018-05-25T08:13:48.955Z,1015.15
2018-05-25T08:14:48.915Z,1015.18
2018-05-25T08:15:48.879Z,1015.20
2018-05-25T08:16:48.840Z,1015.11
2018-05-25T08:17:48.806Z,1015.14
2018-05-25T08:18:48.764Z,1015.12
2018-05-25T08:19:48.729Z,1015.16
2018-05-25T08:20:48.696Z,1015.15
2018-05-25T08:21:48.721Z,1015.17
2018-05-25T08:22:48.612Z,1015.19
2018-05-25T08:23:48.574Z,1015.19
2018-05-25T08:24:48.538Z,1015.18
2018-05-25T08:25:48.498Z,1015.20
2018-05-25T08:26:48.460Z,1015.21
2018-05-25T08:27:48.423Z,1015.19
2018-05-25T08:28:48.386Z,1015.24
2018-05-25T08:29:48.347Z,1015.23
2018-05-25T08:30:48.311Z,1015.19
2018-05-25T08:32:48.233Z,1015.21
2018-05-25T08:33:48.242Z,1015.23
2018-05-25T08:34:48.158Z,1015.20
2018-05-25T08:35:48.124Z,1015.22
2018-05-25T08:36:48.085Z,1015.24
2018-05-25T08:37:48.045Z,1015.26
2018-05-25T08:38:48.014Z,1015.26
2018-05-25T08:39:47.969Z,1015.27
2018-05-25T08:40:47.932Z,1015.26
2018-05-25T08:41:47.894Z,1015.27
2018-05-25T08:42:47.861Z,1015.30
2018-05-25T08:43:47.819Z,1015.27
2018-05-25T08:44:47.783Z,1015.32
2018-05-25T08:45:47.746Z,1015.29
2018-05-25T08:46:47.705Z,1015.31
2018-05-25T08:47:47.669Z,1015.30
2018-05-25T08:48:47.631Z,1015.31
2018-05-25T08:49:47.595Z,1015.31
2018-05-25T08:50:47.556Z,1015.32
2018-05-25T08:51:47.518Z,1015.33
2018-05-25T08:52:47.483Z,1015.33
2018-05-25T08:53:47.443Z,1015.33
2018-05-25T08:54:47.406Z,1015.31
2018-05-25T08:55:47.368Z,1015.31
2018-05-25T08:56:47.331Z,1015.31
2018-05-25T08:57:47.292Z,1015.29
2018-05-25T08:58:47.256Z,1015.30
2018-05-25T08:59:47.218Z,1015.32
2018-05-25T09:00:47.181Z,1015.32
2018-05-25T09:01:47.141Z,1015.30
2018-05-25T09:03:47.067Z,1015.27
2018-05-25T09:04:47.033Z,1015.28
2018-05-25T09:05:46.996Z,1015.30
2018-05-25T09:06:46.999Z,1015.26
2018-05-25T09:07:46.917Z,1015.25
2018-05-25T09:08:46.882Z,1015.29
2018-05-25T09:09:46.845Z,1015.27
2018-05-25T09:10:46.808Z,1015.30
2018-05-25T09:11:46.770Z,1015.26
2018-05-25T09:12:46.730Z,1015.29
2018-05-25T09:13:46.690Z,1015.28
2018-05-25T09:14:46.656Z,1015.25
2018-05-25T09:15:46.618Z,1015.29
2018-05-25T09:16:46.582Z,1015.31
2018-05-25T09:17:46.542Z,1015.28
2018-05-25T09:18:46.505Z,1015.27
2018-05-25T09:19:46.468Z,1015.26
2018-05-25T09:20:46.432Z,1015.28
2018-05-25T09:21:46.443Z,1015.25
2018-05-25T09:22:46.355Z,1015.26
2018-05-25T09:23:46.323Z,1015.23
2018-05-25T09:24:46.280Z,1015.28
2018-05-25T09:25:46.244Z,1015.24
2018-05-25T09:26:46.205Z,1015.24
2018-05-25T09:27:46.168Z,1015.18
2018-05-25T09:28:46.130Z,1015.25
2018-05-25T09:29:46.098Z,1015.23
2018-05-25T09:30:46.099Z,1015.23
2018-05-25T09:31:46.021Z,1015.23
2018-05-25T09:32:45.983Z,1015.23
2018-05-25T09:33:45.945Z,1015.24
2018-05-25T09:34:45.907Z,1015.24
2018-05-25T09:35:45.870Z,1015.23
2018-05-25T09:36:45.854Z,1015.27
2018-05-25T09:37:45.813Z,1015.25
2018-05-25T09:38:45.761Z,1015.25
2018-05-25T09:39:45.724Z,1015.26
2018-05-25T09:40:45.687Z,1015.27
2018-05-25T09:41:45.649Z,1015.27
2018-05-25T09:42:45.613Z,1015.25
2018-05-25T09:43:45.574Z,1015.25
2018-05-25T09:44:45.542Z,1015.22
2018-05-25T09:45:45.504Z,1015.26
2018-05-25T09:46:45.463Z,1015.25
2018-05-25T09:47:45.427Z,1015.23
2018-05-25T09:48:45.395Z,1015.22
2018-05-25T09:49:45.352Z,1015.26
2018-05-25T09:50:45.319Z,1015.23
2018-05-25T09:51:45.280Z,1015.27
2018-05-25T09:52:45.244Z,1015.25
2018-05-25T09:53:45.206Z,1015.24
2018-05-25T09:54:45.168Z,1015.25
2018-05-25T09:55:45.135Z,1015.24
2018-05-25T09:56:45.096Z,1015.27
2018-05-25T09:57:45.060Z,1015.26
2018-05-25T09:58:45.029Z,1015.28
2018-05-25T09:59:44.987Z,1015.24
2018-05-25T10:00:44.950Z,1015.23
2018-05-25T10:01:44.912Z,1015.25
2018-05-25T10:02:44.877Z,1015.26
2018-05-25T10:03:44.845Z,1015.26
2018-05-25T10:04:44.804Z,1015.30
2018-05-25T10:05:44.766Z,1015.28
2018-05-25T10:06:44.731Z,1015.26
2018-05-25T10:07:44.694Z,1015.28
2018-05-25T10:08:44.659Z,1015.28
2018-05-25T10:09:44.622Z,1015.31
2018-05-25T10:10:44.590Z,1015.30
2018-05-25T10:11:44.557Z,1015.25
2018-05-25T10:12:44.526Z,1015.22
2018-05-25T10:13:44.476Z,1015.24
2018-05-25T10:14:44.441Z,1015.23
2018-05-25T10:15:44.407Z,1015.20
2018-05-25T10:16:44.369Z,1015.19
2018-05-25T10:17:44.333Z,1015.19
2018-05-25T10:18:44.298Z,1015.19
2018-05-25T10:19:44.263Z,1015.21
2018-05-25T10:20:44.236Z,1015.22
2018-05-25T10:21:44.190Z,1015.25
2018-05-25T10:22:44.153Z,1015.25
2018-05-25T10:23:44.123Z,1015.27
2018-05-25T10:24:44.082Z,1015.25
2018-05-25T10:25:44.054Z,1015.21
2018-05-25T10:26:44.014Z,1015.23
2018-05-25T10:27:43.975Z,1015.18
2018-05-25T10:28:43.992Z,1015.20
2018-05-25T10:29:43.904Z,1015.22
2018-05-25T10:30:43.868Z,1015.24
2018-05-25T10:31:43.833Z,1015.22
2018-05-25T10:32:43.798Z,1015.21
2018-05-25T10:33:43.765Z,1015.25
2018-05-25T10:34:43.725Z,1015.25
2018-05-25T10:35:43.690Z,1015.22
2018-05-25T10:36:43.656Z,1015.20
2018-05-25T10:37:43.617Z,1015.19
2018-05-25T10:38:43.583Z,1015.20
2018-05-25T10:39:43.543Z,1015.21
2018-05-25T10:40:43.508Z,1015.19
2018-05-25T10:41:43.475Z,1015.17
2018-05-25T10:42:43.439Z,1015.17
2018-05-25T10:43:43.402Z,1015.16
2018-05-25T10:44:43.368Z,1015.17
2018-05-25T10:45:43.385Z,1015.16
2018-05-25T10:46:43.293Z,1015.16
2018-05-25T10:47:43.257Z,1015.15
2018-05-25T10:48:43.311Z,1015.14
2018-05-25T10:49:43.187Z,1015.16
2018-05-25T10:50:43.153Z,1015.16
2018-05-25T10:51:43.114Z,1015.12
2018-05-25T10:52:43.089Z,1015.07
2018-05-25T10:53:43.048Z,1015.11
2018-05-25T10:54:43.007Z,1015.16
2018-05-25T10:55:42.969Z,1015.14
2018-05-25T10:56:42.935Z,1015.17
2018-05-25T10:57:42.900Z,1015.16
2018-05-25T10:58:42.860Z,1015.16
2018-05-25T10:59:42.825Z,1015.17
2018-05-25T11:00:42.798Z,1015.17
2018-05-25T11:01:42.753Z,1015.16
2018-05-25T11:02:42.716Z,1015.14
2018-05-25T11:03:42.720Z,1015.14
2018-05-25T11:04:42.650Z,1015.15
2018-05-25T11:05:42.609Z,1015.20
2018-05-25T11:06:42.576Z,1015.19
2018-05-25T11:07:42.538Z,1015.20
2018-05-25T11:08:42.503Z,1015.20
2018-05-25T11:09:42.465Z,1015.21
2018-05-25T11:10:42.433Z,1015.20
2018-05-25T11:11:42.397Z,1015.20
2018-05-25T11:12:42.365Z,1015.17
2018-05-25T11:13:42.321Z,1015.22
2018-05-25T11:14:42.294Z,1015.18
2018-05-25T11:15:42.248Z,1015.21
2018-05-25T11:16:42.215Z,1015.20
2018-05-25T11:17:42.178Z,1015.19
2018-05-25T11:18:42.143Z,1015.16
2018-05-25T11:19:42.109Z,1015.15
2018-05-25T11:20:42.070Z,1015.15
2018-05-25T11:21:42.031Z,1015.13
2018-05-25T11:22:41.997Z,1015.10
2018-05-25T11:23:41.962Z,1015.10
2018-05-25T11:24:41.927Z,1015.10
2018-05-25T11:25:41.889Z,1015.07
2018-05-25T11:26:41.854Z,1015.10
2018-05-25T11:28:41.783Z,1015.08
2018-05-25T11:29:41.744Z,1015.06
2018-05-25T11:30:41.709Z,1015.05
2018-05-25T11:31:41.671Z,1015.03
2018-05-25T11:32:41.640Z,1015.02
2018-05-25T11:33:41.604Z,1015.01
2018-05-25T11:34:41.563Z,1015.02
2018-05-25T11:35:41.530Z,1015.03
2018-05-25T11:36:41.493Z,1015.05
2018-05-25T11:37:41.458Z,1015.08
2018-05-25T11:38:41.448Z,1015.07
2018-05-25T11:39:41.393Z,1015.10
2018-05-25T11:40:41.350Z,1015.10
2018-05-25T11:41:41.314Z,1015.06
2018-05-25T11:42:41.286Z,1015.05
2018-05-25T11:43:41.240Z,1015.08
2018-05-25T11:44:41.209Z,1015.03
2018-05-25T11:45:41.168Z,1015.02
2018-05-25T11:46:41.149Z,1014.99
2018-05-25T11:47:41.099Z,1014.98
2018-05-25T11:48:41.061Z,1014.95
2018-05-25T11:49:41.023Z,1014.97
2018-05-25T11:50:40.989Z,1014.93
2018-05-25T11:51:40.952Z,1014.93
2018-05-25T11:52:40.918Z,1014.88
2018-05-25T11:53:40.882Z,1014.87
2018-05-25T11:54:40.845Z,1014.85
2018-05-25T11:55:40.808Z,1014.86
2018-05-25T11:56:40.772Z,1014.85
2018-05-25T11:57:40.736Z,1014.83
2018-05-25T11:58:40.702Z,1014.83
2018-05-25T11:59:40.665Z,1014.83
2018-05-25T12:00:40.639Z,1014.80
2018-05-25T12:01:40.599Z,1014.83
2018-05-25T12:02:40.574Z,1014.84
2018-05-25T12:03:40.521Z,1014.85
2018-05-25T12:04:40.487Z,1014.83
2018-05-25T12:05:40.450Z,1014.84
2018-05-25T12:06:40.427Z,1014.85
2018-05-25T12:07:40.383Z,1014.81